Time;durP1;ratioP1;P1;durP2;ratioP2;P2;SDS_P1;SDS_P2;PMS_P1;PMS_P2;Temp;Humidity;BMP_temperature;BMP_pressure;BME280_temperature;BME280_humidity;BME280_pressure;Samples;Min_cycle;Max_cycle;Signal;HPM_P1;HPM_P2
2023/01/19 00:00:38;;;;;;;67.77;30.30;;;;;;;0.76;100.00;98579.31;5046174;23;21807;-68
2023/01/19 00:03:14;;;;;;;81.00;31.60;;;;;;;0.66;100.00;98594.97;5061331;23;20244;-69
2023/01/19 00:05:42;;;;;;;71.60;31.00;;;;;;;0.67;100.00;98603.66;5073837;23;21870;-69
2023/01/19 00:08:15;;;;;;;75.17;32.17;;;;;;;0.55;100.00;98608.13;5054215;23;20204;-67
2023/01/19 00:10:44;;;;;;;77.70;31.80;;;;;;;0.58;100.00;98610.47;5062550;23;21608;-68
2023/01/19 00:13:12;;;;;;;79.47;33.10;;;;;;;0.61;100.00;98615.47;5052054;23;20563;-68
2023/01/19 00:15:38;;;;;;;84.83;34.17;;;;;;;0.57;100.00;98616.66;5049308;23;20211;-67
2023/01/19 00:18:06;;;;;;;86.40;34.30;;;;;;;0.54;100.00;98627.38;5057550;23;20320;-69
2023/01/19 00:20:35;;;;;;;85.27;35.00;;;;;;;0.56;100.00;98622.84;5052477;23;20215;-69
2023/01/19 00:23:03;;;;;;;84.60;35.43;;;;;;;0.60;100.00;98619.03;5053488;23;20208;-66
2023/01/19 00:25:30;;;;;;;87.53;36.37;;;;;;;0.64;100.00;98620.44;5055726;23;21542;-68
2023/01/19 00:27:56;;;;;;;90.10;35.60;;;;;;;0.71;100.00;98633.84;5070632;23;20261;-66
2023/01/19 00:30:26;;;;;;;88.30;35.77;;;;;;;0.87;100.00;98636.00;5035862;23;20200;-71
2023/01/19 00:32:53;;;;;;;90.53;38.03;;;;;;;0.86;100.00;98639.59;5061778;23;20200;-69
2023/01/19 00:35:19;;;;;;;91.03;37.80;;;;;;;0.74;100.00;98639.66;5085693;23;20211;-68
2023/01/19 00:37:46;;;;;;;83.47;35.13;;;;;;;0.74;100.00;98650.13;5053623;23;20271;-66
2023/01/19 00:40:12;;;;;;;88.40;35.97;;;;;;;0.66;100.00;98652.56;5056631;23;20249;-67
2023/01/19 00:42:40;;;;;;;81.70;35.40;;;;;;;0.61;100.00;98652.94;5034462;23;20206;-68
2023/01/19 00:45:08;;;;;;;84.20;35.20;;;;;;;0.63;100.00;98666.72;5069102;23;20207;-69
2023/01/19 00:47:35;;;;;;;86.53;34.23;;;;;;;0.75;100.00;98670.13;5075850;23;21448;-66
2023/01/19 00:50:02;;;;;;;82.33;35.73;;;;;;;0.91;100.00;98663.59;5040594;23;20200;-67
2023/01/19 00:52:28;;;;;;;85.33;36.47;;;;;;;0.76;100.00;98666.53;5061949;23;20598;-68
2023/01/19 00:54:55;;;;;;;86.27;36.27;;;;;;;0.69;100.00;98656.72;5054021;23;20230;-69
2023/01/19 00:57:22;;;;;;;87.60;36.37;;;;;;;0.71;100.00;98660.84;5055838;23;20216;-67
2023/01/19 00:59:48;;;;;;;87.77;36.50;;;;;;;0.65;100.00;98650.88;5055682;23;20211;-67
2023/01/19 01:02:15;;;;;;;93.17;37.87;;;;;;;0.67;100.00;98648.97;5077743;23;20200;-66
2023/01/19 01:04:42;;;;;;;86.37;36.87;;;;;;;0.64;100.00;98651.84;5054218;23;20204;-68
2023/01/19 01:07:08;;;;;;;99.27;37.77;;;;;;;0.59;100.00;98651.41;5062528;23;20235;-68
2023/01/19 01:09:35;;;;;;;90.73;37.00;;;;;;;0.62;100.00;98659.00;5059215;23;21175;-66
2023/01/19 01:12:02;;;;;;;89.83;38.17;;;;;;;0.63;100.00;98652.78;5078382;23;20274;-67
2023/01/19 01:14:31;;;;;;;92.80;37.23;;;;;;;0.63;100.00;98655.41;5060058;23;20272;-67
2023/01/19 01:16:57;;;;;;;105.53;41.47;;;;;;;0.63;100.00;98650.19;5064320;23;20234;-66
2023/01/19 01:19:24;;;;;;;92.20;37.93;;;;;;;0.61;100.00;98647.69;5075049;23;20263;-69
2023/01/19 01:21:50;;;;;;;92.73;38.10;;;;;;;0.60;100.00;98646.03;5057519;23;20211;-68
2023/01/19 01:24:17;;;;;;;89.87;37.70;;;;;;;0.60;100.00;98639.97;5063373;23;20597;-66
2023/01/19 01:26:44;;;;;;;90.83;39.17;;;;;;;0.67;100.00;98645.53;5062553;23;20204;-67
2023/01/19 01:29:11;;;;;;;106.90;41.30;;;;;;;0.66;100.00;98638.66;5039178;23;20200;-66
2023/01/19 01:31:37;;;;;;;96.17;40.27;;;;;;;0.67;100.00;98633.25;5048248;23;21060;-67
2023/01/19 01:34:04;;;;;;;106.33;41.80;;;;;;;0.64;100.00;98636.16;5055638;23;20891;-67
2023/01/19 01:36:32;;;;;;;97.13;40.37;;;;;;;0.67;100.00;98641.13;5055379;23;20472;-67
2023/01/19 01:38:59;;;;;;;101.37;40.33;;;;;;;0.59;100.00;98631.28;5072005;23;20258;-68
2023/01/19 01:41:26;;;;;;;101.77;41.07;;;;;;;0.60;100.00;98632.13;5031056;23;20252;-67
2023/01/19 01:43:57;;;;;;;103.90;40.87;;;;;;;0.60;100.00;98629.50;5065429;23;20209;-66
2023/01/19 01:46:25;;;;;;;97.90;41.20;;;;;;;0.56;100.00;98628.09;5057911;23;20254;-66
2023/01/19 01:49:14;;;;;;;108.53;41.80;;;;;;;0.52;100.00;98626.69;5063220;23;20299;-66
2023/01/19 01:51:46;;;;;;;94.30;38.37;;;;;;;0.51;100.00;98627.63;5077942;23;20204;-68
2023/01/19 01:54:26;;;;;;;94.67;38.33;;;;;;;0.49;100.00;98624.31;5060571;23;20502;-67
2023/01/19 01:56:54;;;;;;;99.50;39.17;;;;;;;0.50;100.00;98618.97;5062866;23;20275;-68
2023/01/19 01:59:24;;;;;;;101.27;40.23;;;;;;;0.46;100.00;98621.94;5066925;23;20290;-67
2023/01/19 02:04:50;;;;;;;99.10;39.40;;;;;;;0.40;100.00;98623.28;5036249;23;20213;-65
2023/01/19 02:15:41;;;;;;;99.43;39.00;;;;;;;0.28;100.00;98617.28;5071105;23;21156;-66
2023/01/19 02:18:08;;;;;;;95.17;38.07;;;;;;;0.23;100.00;98622.03;5056251;23;20203;-66
2023/01/19 02:20:34;;;;;;;107.60;39.67;;;;;;;0.20;100.00;98628.34;5063405;23;20208;-66
2023/01/19 02:23:02;;;;;;;103.93;40.70;;;;;;;0.20;100.00;98622.28;5067890;23;20285;-65
2023/01/19 02:25:29;;;;;;;96.33;37.90;;;;;;;0.18;100.00;98616.34;5063076;23;20303;-66
2023/01/19 02:27:56;;;;;;;98.33;38.03;;;;;;;0.26;100.00;98621.81;5083226;23;20266;-65
2023/01/19 02:30:22;;;;;;;108.60;38.90;;;;;;;0.19;100.00;98620.63;5059157;23;20204;-66
2023/01/19 02:32:49;;;;;;;103.73;39.67;;;;;;;0.19;100.00;98620.63;5058145;23;20207;-66
2023/01/19 02:35:16;;;;;;;111.10;41.23;;;;;;;0.18;100.00;98619.78;5058784;23;20374;-66
2023/01/19 02:37:43;;;;;;;108.50;39.57;;;;;;;0.16;100.00;98623.47;5077443;23;22590;-66
2023/01/19 02:40:14;;;;;;;105.67;39.57;;;;;;;0.18;100.00;98626.81;5033335;23;21431;-65
2023/01/19 02:42:51;;;;;;;101.13;38.57;;;;;;;0.18;100.00;98627.63;5044324;23;20231;-65
2023/01/19 02:45:20;;;;;;;105.47;39.47;;;;;;;0.22;100.00;98622.16;5040044;23;21672;-65
2023/01/19 02:47:49;;;;;;;104.10;41.00;;;;;;;0.22;100.00;98630.84;5037122;23;20325;-65
2023/01/19 02:50:33;;;;;;;102.73;39.57;;;;;;;0.22;100.00;98628.22;5064952;23;21165;-65
2023/01/19 02:53:10;;;;;;;107.80;38.93;;;;;;;0.24;100.00;98634.16;5035431;23;21171;-66
2023/01/19 02:55:38;;;;;;;107.33;39.50;;;;;;;0.27;100.00;98633.91;5067045;23;21650;-67
2023/01/19 02:58:07;;;;;;;102.67;38.93;;;;;;;0.38;100.00;98644.34;5055212;23;20258;-66
2023/01/19 03:00:51;;;;;;;101.63;37.00;;;;;;;0.43;100.00;98637.91;5058140;23;22505;-64
2023/01/19 03:03:33;;;;;;;95.37;35.87;;;;;;;0.37;100.00;98639.22;5041891;23;20211;-65
2023/01/19 03:06:07;;;;;;;97.17;36.77;;;;;;;0.41;100.00;98641.47;5061835;23;24041;-65
2023/01/19 03:08:44;;;;;;;97.83;37.60;;;;;;;0.40;100.00;98628.53;5044588;23;20208;-64
2023/01/19 03:11:11;;;;;;;102.90;37.10;;;;;;;0.35;100.00;98621.06;5070454;23;23628;-66
2023/01/19 03:13:46;;;;;;;104.60;37.23;;;;;;;0.32;100.00;98616.06;5041097;23;20649;-65
2023/01/19 03:16:25;;;;;;;98.07;38.37;;;;;;;0.31;100.00;98617.03;5067153;23;20203;-65
2023/01/19 03:19:00;;;;;;;106.40;38.40;;;;;;;0.38;100.00;98618.19;5067458;23;21195;-65
2023/01/19 03:21:27;;;;;;;99.77;37.50;;;;;;;0.36;100.00;98619.25;5052666;23;20287;-64
2023/01/19 03:23:56;;;;;;;104.90;38.00;;;;;;;0.34;100.00;98632.47;5065219;23;22067;-66
2023/01/19 03:26:28;;;;;;;94.93;36.63;;;;;;;0.33;100.00;98638.66;5053851;23;20215;-66
2023/01/19 03:28:56;;;;;;;99.90;36.93;;;;;;;0.33;100.00;98641.28;5050214;23;20282;-65
2023/01/19 03:31:25;;;;;;;103.93;39.20;;;;;;;0.33;100.00;98638.66;5059686;23;22819;-67
2023/01/19 03:33:58;;;;;;;111.13;40.00;;;;;;;0.36;100.00;98642.81;5051826;23;20299;-67
2023/01/19 03:36:31;;;;;;;105.73;39.93;;;;;;;0.37;100.00;98655.75;5058224;23;23139;-68
2023/01/19 03:39:00;;;;;;;106.40;40.40;;;;;;;0.40;100.00;98650.28;5040399;23;20210;-65
2023/01/19 03:41:27;;;;;;;100.60;36.83;;;;;;;0.39;100.00;98648.59;5048231;23;20235;-64
2023/01/19 03:43:55;;;;;;;103.17;38.73;;;;;;;0.37;100.00;98650.50;5043252;23;20225;-64
2023/01/19 03:46:22;;;;;;;105.17;38.30;;;;;;;0.41;100.00;98651.09;5037698;23;20267;-64
2023/01/19 03:48:49;;;;;;;95.97;38.40;;;;;;;0.47;100.00;98658.47;5074500;23;20208;-64
2023/01/19 03:51:16;;;;;;;104.60;37.07;;;;;;;0.48;100.00;98667.97;5048791;23;21509;-63
2023/01/19 03:53:42;;;;;;;102.27;37.57;;;;;;;0.44;100.00;98670.97;5058831;23;20216;-65
2023/01/19 03:56:16;;;;;;;100.30;38.77;;;;;;;0.45;100.00;98670.84;5062288;23;20262;-68
2023/01/19 03:58:43;;;;;;;108.47;38.70;;;;;;;0.47;100.00;98674.16;5053908;23;20200;-65
2023/01/19 04:01:10;;;;;;;104.17;38.77;;;;;;;0.48;100.00;98675.00;5072133;23;20219;-66
2023/01/19 04:03:36;;;;;;;111.90;39.30;;;;;;;0.46;100.00;98675.09;5055254;23;22185;-66
2023/01/19 04:06:03;;;;;;;102.60;37.93;;;;;;;0.54;100.00;98687.56;5060447;23;22690;-64
2023/01/19 04:08:30;;;;;;;109.90;39.90;;;;;;;0.50;100.00;98688.78;5048498;23;20315;-65
2023/01/19 04:10:57;;;;;;;102.87;37.07;;;;;;;0.48;100.00;98690.69;5069228;23;21654;-65
2023/01/19 04:13:25;;;;;;;107.57;38.60;;;;;;;0.49;100.00;98694.97;5061703;23;20301;-65
2023/01/19 04:15:52;;;;;;;101.10;38.13;;;;;;;0.51;100.00;98695.66;5058327;23;22922;-67
2023/01/19 04:18:19;;;;;;;100.67;37.87;;;;;;;0.52;100.00;98697.34;5062188;23;20200;-68
2023/01/19 04:20:45;;;;;;;101.70;38.33;;;;;;;0.55;100.00;98697.09;5089950;23;21581;-64
2023/01/19 04:23:12;;;;;;;106.33;38.20;;;;;;;0.57;100.00;98705.66;5076964;23;22010;-66
2023/01/19 04:25:39;;;;;;;100.67;37.33;;;;;;;0.56;100.00;98699.59;5062117;23;20271;-64
2023/01/19 04:28:06;;;;;;;103.03;38.70;;;;;;;0.58;100.00;98699.44;5075888;23;20212;-65
2023/01/19 04:30:32;;;;;;;102.03;39.40;;;;;;;0.59;100.00;98703.75;5051706;23;20376;-64
2023/01/19 04:32:59;;;;;;;107.70;39.47;;;;;;;0.57;100.00;98709.09;5066084;23;20208;-67
2023/01/19 04:35:26;;;;;;;94.67;36.63;;;;;;;0.65;100.00;98718.94;5059320;23;21460;-64
2023/01/19 04:37:52;;;;;;;100.20;37.80;;;;;;;0.69;100.00;98711.69;5056286;23;25604;-64
2023/01/19 04:40:19;;;;;;;103.27;36.63;;;;;;;0.69;100.00;98717.75;5061019;23;20215;-62
2023/01/19 04:42:46;;;;;;;101.70;38.10;;;;;;;0.69;100.00;98716.91;5055110;23;20264;-67
2023/01/19 04:45:13;;;;;;;100.87;37.93;;;;;;;0.65;100.00;98724.16;5069892;23;20269;-63
2023/01/19 04:47:41;;;;;;;101.97;37.90;;;;;;;0.66;100.00;98722.41;5061182;23;20274;-66
2023/01/19 04:50:09;;;;;;;102.20;38.20;;;;;;;0.70;100.00;98719.38;5043539;23;25727;-66
2023/01/19 04:52:36;;;;;;;96.73;37.27;;;;;;;0.69;100.00;98728.22;5051616;23;21546;-66
2023/01/19 04:55:03;;;;;;;94.40;35.20;;;;;;;0.68;100.00;98730.94;5080626;23;20382;-64
2023/01/19 04:57:30;;;;;;;95.00;36.17;;;;;;;0.68;100.00;98747.50;5052708;23;22024;-67
2023/01/19 04:59:57;;;;;;;90.20;35.57;;;;;;;0.66;100.00;98738.94;5062792;23;20206;-63
2023/01/19 05:02:24;;;;;;;94.07;35.93;;;;;;;0.68;100.00;98737.03;5066857;23;20235;-66
2023/01/19 05:04:50;;;;;;;96.70;38.07;;;;;;;0.70;100.00;98739.50;5056609;23;20359;-65
2023/01/19 05:07:17;;;;;;;93.40;37.50;;;;;;;0.72;100.00;98748.06;5058789;23;20211;-64
2023/01/19 05:09:44;;;;;;;92.47;37.17;;;;;;;0.73;100.00;98745.34;5079496;23;20207;-65
2023/01/19 05:12:10;;;;;;;94.83;36.57;;;;;;;0.79;100.00;98747.44;5056894;23;20279;-66
2023/01/19 05:14:37;;;;;;;92.07;36.30;;;;;;;0.93;100.00;98748.13;5052722;23;20266;-65
2023/01/19 05:17:04;;;;;;;95.90;38.27;;;;;;;0.99;100.00;98758.94;5063653;23;20207;-66
2023/01/19 05:19:30;;;;;;;91.13;35.67;;;;;;;1.11;100.00;98759.72;5065715;23;21796;-66
2023/01/19 05:21:57;;;;;;;90.13;36.30;;;;;;;1.11;100.00;98749.22;5068122;23;20214;-67
2023/01/19 05:24:23;;;;;;;90.80;36.00;;;;;;;1.11;100.00;98745.78;5061574;23;20321;-65
2023/01/19 05:26:50;;;;;;;87.37;34.97;;;;;;;1.16;100.00;98739.19;5092763;23;20430;-66
2023/01/19 05:29:16;;;;;;;79.43;32.30;;;;;;;1.21;100.00;98744.88;5043423;23;20713;-65
2023/01/19 05:31:43;;;;;;;78.87;31.73;;;;;;;1.11;100.00;98741.38;5040814;23;20698;-64
2023/01/19 05:34:10;;;;;;;79.20;33.07;;;;;;;1.10;100.00;98744.09;5046967;23;25413;-64
2023/01/19 05:36:36;;;;;;;81.57;32.90;;;;;;;1.05;100.00;98754.97;5075486;23;25746;-65
2023/01/19 05:39:03;;;;;;;77.07;32.80;;;;;;;1.04;100.00;98769.84;5061715;23;21780;-65
2023/01/19 05:41:30;;;;;;;80.30;30.67;;;;;;;1.10;100.00;98770.28;5060425;23;22003;-66
2023/01/19 05:43:56;;;;;;;73.27;31.43;;;;;;;1.02;100.00;98766.53;5057862;23;21855;-65
2023/01/19 05:46:23;;;;;;;80.30;31.93;;;;;;;1.18;100.00;98779.19;5056031;23;20692;-62
2023/01/19 05:48:50;;;;;;;75.47;30.70;;;;;;;1.23;100.00;98769.16;5134355;23;20330;-64
2023/01/19 05:51:16;;;;;;;68.70;31.43;;;;;;;1.13;100.00;98768.28;5267256;23;20199;-65
2023/01/19 05:53:43;;;;;;;72.50;29.77;;;;;;;1.16;100.00;98768.00;5274430;23;21796;-65
2023/01/19 05:56:10;;;;;;;72.50;30.13;;;;;;;1.15;100.00;98771.59;5103720;23;20215;-66
2023/01/19 05:58:40;;;;;;;66.37;28.33;;;;;;;1.16;100.00;98768.00;5068113;23;21054;-63
2023/01/19 06:01:08;;;;;;;64.67;28.33;;;;;;;1.19;100.00;98773.00;5059460;23;23894;-65
2023/01/19 06:03:35;;;;;;;63.63;27.13;;;;;;;1.14;100.00;98784.81;5067025;23;20212;-65
2023/01/19 06:06:02;;;;;;;67.30;27.73;;;;;;;1.09;100.00;98790.44;5052010;23;20242;-63
2023/01/19 06:08:29;;;;;;;64.37;28.27;;;;;;;1.20;100.00;98795.63;5053976;23;20999;-65
2023/01/19 06:10:56;;;;;;;60.60;26.90;;;;;;;1.15;100.00;98787.31;5052313;23;21988;-66
2023/01/19 06:13:22;;;;;;;54.07;24.83;;;;;;;1.11;100.00;98785.06;5039515;23;20622;-65
2023/01/19 06:15:55;;;;;;;58.17;24.83;;;;;;;1.07;100.00;98794.97;5050211;23;20209;-68
2023/01/19 06:18:22;;;;;;;52.43;24.77;;;;;;;1.12;100.00;98803.28;5053986;23;20323;-67
2023/01/19 06:20:48;;;;;;;51.70;24.20;;;;;;;1.12;100.00;98811.13;5091540;23;20263;-64
2023/01/19 06:23:15;;;;;;;55.10;24.97;;;;;;;1.06;100.00;98824.75;5114228;23;20650;-65
2023/01/19 06:25:41;;;;;;;60.50;27.10;;;;;;;1.09;100.00;98840.19;5054932;23;22460;-65
2023/01/19 06:28:08;;;;;;;55.60;24.50;;;;;;;1.10;100.00;98841.88;5060634;23;20598;-66
2023/01/19 06:30:35;;;;;;;55.00;23.97;;;;;;;1.21;100.00;98848.84;5053252;23;20562;-70
2023/01/19 06:33:01;;;;;;;58.67;25.70;;;;;;;1.18;100.00;98855.19;5056389;23;20204;-65
2023/01/19 06:35:28;;;;;;;58.43;24.63;;;;;;;1.14;100.00;98853.75;5071143;23;20231;-67
2023/01/19 06:37:54;;;;;;;56.73;24.13;;;;;;;1.15;100.00;98852.81;5052805;23;20215;-67
2023/01/19 06:40:21;;;;;;;52.33;22.40;;;;;;;1.21;100.00;98859.34;5087667;23;23198;-67
2023/01/19 06:42:48;;;;;;;52.63;23.00;;;;;;;1.19;100.00;98862.06;5039049;23;20736;-69
2023/01/19 06:45:15;;;;;;;50.47;23.37;;;;;;;1.19;100.00;98862.06;5074777;23;20211;-66
2023/01/19 06:47:41;;;;;;;55.23;23.07;;;;;;;1.12;100.00;98871.38;5069238;23;20295;-64
2023/01/19 06:50:08;;;;;;;53.87;23.17;;;;;;;1.22;100.00;98876.72;5069354;23;20214;-65
2023/01/19 06:52:41;;;;;;;52.73;23.57;;;;;;;1.27;100.00;98870.16;5063810;23;20200;-67
2023/01/19 06:55:09;;;;;;;50.57;22.80;;;;;;;1.22;100.00;98877.56;5103029;23;21726;-64
2023/01/19 06:57:39;;;;;;;49.90;22.90;;;;;;;1.23;100.00;98878.38;5044485;23;20665;-64
2023/01/19 07:00:07;;;;;;;54.60;24.03;;;;;;;1.18;100.00;98864.81;5054719;23;20211;-65
2023/01/19 07:02:35;;;;;;;51.33;23.67;;;;;;;1.20;100.00;98871.59;5064372;23;20211;-65
2023/01/19 07:05:03;;;;;;;53.30;23.90;;;;;;;1.13;100.00;98862.59;5046108;23;20685;-66
2023/01/19 07:07:30;;;;;;;51.00;23.33;;;;;;;1.16;100.00;98861.50;5069803;23;20206;-64
2023/01/19 07:09:56;;;;;;;56.47;24.63;;;;;;;1.29;100.00;98862.19;5078931;23;20200;-66
2023/01/19 07:12:23;;;;;;;52.80;24.83;;;;;;;1.33;100.00;98860.13;5064040;23;20824;-64
2023/01/19 07:14:50;;;;;;;51.03;24.17;;;;;;;1.16;100.00;98851.84;5103293;23;25864;-64
2023/01/19 07:17:17;;;;;;;55.60;25.13;;;;;;;1.14;100.00;98848.50;5075427;23;22002;-66
2023/01/19 07:19:45;;;;;;;53.20;24.73;;;;;;;1.17;100.00;98842.19;5082098;23;20199;-64
2023/01/19 07:22:11;;;;;;;58.70;24.10;;;;;;;1.17;100.00;98850.91;5082222;23;21656;-66
2023/01/19 07:24:38;;;;;;;57.63;25.47;;;;;;;1.23;100.00;98862.66;5111062;23;23570;-65
2023/01/19 07:27:05;;;;;;;54.20;23.80;;;;;;;1.20;100.00;98857.69;5077201;23;20262;-66
2023/01/19 07:29:32;;;;;;;53.97;23.93;;;;;;;1.23;100.00;98853.00;5075491;23;20207;-65
2023/01/19 07:31:59;;;;;;;52.73;22.73;;;;;;;1.19;100.00;98859.44;5102865;23;20206;-65
2023/01/19 07:34:25;;;;;;;50.00;21.57;;;;;;;1.21;100.00;98849.69;5087813;23;20351;-64
2023/01/19 07:36:52;;;;;;;50.73;23.03;;;;;;;1.22;100.00;98858.38;5081413;23;20260;-64
2023/01/19 07:39:19;;;;;;;52.63;23.97;;;;;;;1.33;100.00;98860.13;5054465;23;20381;-64
2023/01/19 07:41:47;;;;;;;52.00;23.37;;;;;;;1.30;100.00;98857.75;5103789;23;20208;-66
2023/01/19 07:44:14;;;;;;;48.60;21.70;;;;;;;1.40;100.00;98856.03;5076346;23;20204;-62
2023/01/19 07:46:42;;;;;;;46.93;21.93;;;;;;;1.46;100.00;98864.25;5095241;23;20336;-64
2023/01/19 07:49:08;;;;;;;50.83;21.83;;;;;;;1.43;100.00;98867.13;5107690;23;21773;-64
2023/01/19 07:51:35;;;;;;;43.77;19.70;;;;;;;1.51;100.00;98871.72;5102230;23;20247;-65
2023/01/19 07:54:02;;;;;;;45.20;21.03;;;;;;;1.60;100.00;98881.44;5091935;23;22139;-65
2023/01/19 07:56:31;;;;;;;48.10;21.60;;;;;;;1.68;100.00;98889.50;5116160;23;20464;-67
2023/01/19 07:58:59;;;;;;;42.77;21.07;;;;;;;1.63;100.00;98888.22;5098055;23;20204;-68
2023/01/19 08:01:25;;;;;;;43.03;20.60;;;;;;;1.54;100.00;98902.09;5052500;23;20217;-66
2023/01/19 08:03:52;;;;;;;42.40;20.73;;;;;;;1.56;100.00;98911.50;5093849;23;20208;-67
2023/01/19 08:06:21;;;;;;;49.23;22.40;;;;;;;1.66;100.00;98915.03;5093427;23;20271;-63
2023/01/19 08:08:47;;;;;;;47.50;20.77;;;;;;;1.75;100.00;98904.75;5076494;23;21878;-64
2023/01/19 08:11:14;;;;;;;38.80;17.63;;;;;;;1.79;100.00;98903.53;5085021;23;20266;-66
2023/01/19 08:13:42;;;;;;;46.03;19.87;;;;;;;1.74;100.00;98900.47;5068215;23;20449;-64
2023/01/19 08:16:08;;;;;;;43.20;19.33;;;;;;;1.69;100.00;98901.69;5060243;23;20534;-65
2023/01/19 08:18:35;;;;;;;40.50;18.23;;;;;;;1.61;100.00;98892.75;5062500;23;21475;-64
2023/01/19 08:21:02;;;;;;;48.03;22.37;;;;;;;1.56;100.00;98884.44;5060837;23;20264;-64
2023/01/19 08:23:28;;;;;;;41.37;18.70;;;;;;;1.65;100.00;98884.53;5054167;23;20428;-64
2023/01/19 08:25:55;;;;;;;39.10;18.83;;;;;;;1.63;100.00;98886.44;5056776;23;21203;-64
2023/01/19 08:28:21;;;;;;;42.03;20.37;;;;;;;1.77;100.00;98880.06;5066436;23;21206;-65
2023/01/19 08:30:53;;;;;;;39.30;19.20;;;;;;;1.69;100.00;98880.69;5071356;23;20208;-65
2023/01/19 08:33:24;;;;;;;37.27;18.37;;;;;;;1.66;100.00;98870.47;5057115;23;20206;-63
2023/01/19 08:35:51;;;;;;;36.57;17.70;;;;;;;1.68;100.00;98872.94;5084576;23;20200;-64
2023/01/19 08:38:18;;;;;;;39.50;16.70;;;;;;;1.86;100.00;98876.66;5102375;23;20319;-64
2023/01/19 08:40:45;;;;;;;39.13;17.53;;;;;;;1.93;100.00;98874.38;5050911;23;20211;-64
2023/01/19 08:43:13;;;;;;;40.67;18.73;;;;;;;2.00;100.00;98885.19;5062986;23;21818;-61
2023/01/19 08:45:46;;;;;;;38.53;17.87;;;;;;;1.94;100.00;98873.41;5068594;23;20212;-64
2023/01/19 08:48:15;;;;;;;37.13;17.47;;;;;;;1.85;100.00;98872.41;5048467;23;20298;-64
2023/01/19 08:50:44;;;;;;;35.60;17.17;;;;;;;1.92;100.00;98875.34;5062463;23;20215;-65
2023/01/19 08:53:10;;;;;;;42.10;17.50;;;;;;;2.02;100.00;98886.72;5063665;23;20389;-63
2023/01/19 08:55:38;;;;;;;35.70;17.80;;;;;;;2.06;100.00;98889.91;5058075;23;20587;-65
2023/01/19 08:58:06;;;;;;;39.63;18.00;;;;;;;1.91;100.00;98884.16;5069055;23;21808;-64
2023/01/19 09:00:34;;;;;;;41.03;18.77;;;;;;;1.82;100.00;98898.03;5079249;23;20204;-64
2023/01/19 09:03:02;;;;;;;44.70;20.23;;;;;;;1.84;100.00;98906.59;5048723;23;20211;-62
2023/01/19 09:05:34;;;;;;;41.43;18.87;;;;;;;1.97;100.00;98909.88;5027754;23;20300;-63
2023/01/19 09:08:01;;;;;;;46.53;21.30;;;;;;;1.92;100.00;98905.97;5022724;23;20213;-64
2023/01/19 09:10:34;;;;;;;47.63;21.87;;;;;;;1.85;100.00;98914.34;5023924;23;21733;-66
2023/01/19 09:13:10;;;;;;;41.70;18.97;;;;;;;1.85;100.00;98903.88;5026513;23;20209;-66
2023/01/19 09:15:37;;;;;;;38.53;17.90;;;;;;;1.77;100.00;98908.91;5030657;23;22901;-64
2023/01/19 09:18:08;;;;;;;46.00;19.20;;;;;;;1.76;100.00;98907.25;5037145;23;20216;-65
2023/01/19 09:20:37;;;;;;;39.23;18.80;;;;;;;1.74;100.00;98905.72;5045892;23;20636;-64
2023/01/19 09:23:04;;;;;;;40.47;18.53;;;;;;;1.67;100.00;98903.59;5033546;23;21531;-66
2023/01/19 09:25:31;;;;;;;42.93;19.43;;;;;;;1.66;100.00;98908.94;5015801;23;20215;-65
2023/01/19 09:27:59;;;;;;;43.20;18.83;;;;;;;1.67;100.00;98919.31;5034330;23;20220;-67
2023/01/19 09:30:26;;;;;;;42.30;18.93;;;;;;;1.62;100.00;98921.50;5044385;23;20209;-65
2023/01/19 09:32:53;;;;;;;41.07;18.03;;;;;;;1.64;100.00;98927.44;5070374;23;20295;-67
2023/01/19 09:35:20;;;;;;;41.27;18.90;;;;;;;1.57;100.00;98923.66;5024320;23;20209;-65
2023/01/19 09:37:47;;;;;;;41.20;18.93;;;;;;;1.55;100.00;98915.09;5041361;23;21889;-65
2023/01/19 11:14:06;;;;;;;60.63;25.83;;;;;;;1.43;100.00;98882.03;5012132;22;1465678;-68
2023/01/19 11:16:34;;;;;;;61.03;26.60;;;;;;;1.41;100.00;98881.31;5036726;23;20563;-64
2023/01/19 11:19:02;;;;;;;60.03;25.70;;;;;;;1.39;100.00;98872.72;5038400;23;20236;-65
2023/01/19 11:21:30;;;;;;;58.00;26.83;;;;;;;1.38;100.00;98876.28;5028685;23;20339;-67
2023/01/19 11:24:04;;;;;;;61.90;25.80;;;;;;;1.37;100.00;98877.25;5042519;23;20208;-65
2023/01/19 11:26:39;;;;;;;64.27;27.10;;;;;;;1.36;100.00;98880.81;5049812;23;24898;-67
2023/01/19 11:29:17;;;;;;;60.20;26.73;;;;;;;1.42;100.00;98878.53;5021831;23;20219;-64
2023/01/19 11:31:43;;;;;;;61.57;26.90;;;;;;;1.45;100.00;98878.31;5028367;23;20243;-65
2023/01/19 11:34:31;;;;;;;58.67;27.17;;;;;;;1.45;100.00;98867.81;5050450;23;20226;-64
2023/01/19 11:36:59;;;;;;;60.43;25.80;;;;;;;1.45;100.00;98856.50;5046193;23;20221;-65
2023/01/19 11:39:29;;;;;;;63.60;27.50;;;;;;;1.44;100.00;98860.09;5039480;23;20287;-66
2023/01/19 11:41:58;;;;;;;60.27;26.30;;;;;;;1.43;100.00;98853.19;5032795;23;21504;-64
2023/01/19 11:45:06;;;;;;;58.53;26.00;;;;;;;1.48;100.00;98854.47;5026246;23;22053;-65
2023/01/19 11:47:40;;;;;;;54.07;26.03;;;;;;;1.59;100.00;98852.72;5022877;23;20449;-65
2023/01/19 11:50:26;;;;;;;77.00;33.00;;;;;;;1.67;100.00;98850.31;5035736;23;20238;-64
2023/01/19 11:53:16;;;;;;;58.70;26.90;;;;;;;1.69;100.00;98845.78;5012268;23;20212;-65
2023/01/19 11:55:50;;;;;;;59.87;26.20;;;;;;;1.77;100.00;98848.59;5023101;23;20205;-64
2023/01/19 11:58:17;;;;;;;56.00;25.37;;;;;;;1.75;100.00;98855.75;5027023;23;20205;-65
2023/01/19 12:00:49;;;;;;;57.17;25.63;;;;;;;1.73;100.00;98852.41;5047546;23;20209;-65
2023/01/19 12:03:21;;;;;;;51.67;25.13;;;;;;;1.73;100.00;98848.97;5021059;23;20224;-64
2023/01/19 12:05:51;;;;;;;56.17;24.60;;;;;;;1.73;100.00;98854.22;5008169;23;20259;-66
2023/01/19 12:08:26;;;;;;;53.40;23.67;;;;;;;1.73;100.00;98848.97;5028539;23;20691;-65
2023/01/19 12:10:55;;;;;;;54.60;24.03;;;;;;;1.83;100.00;98852.50;5035049;23;20223;-65
2023/01/19 12:13:23;;;;;;;51.63;24.07;;;;;;;1.90;100.00;98846.59;5033945;23;20220;-66
2023/01/19 12:15:56;;;;;;;48.30;21.57;;;;;;;1.81;100.00;98843.94;5060816;23;20216;-64
2023/01/19 12:18:28;;;;;;;48.37;21.60;;;;;;;1.77;100.00;98853.81;5024392;23;20211;-66
2023/01/19 12:20:57;;;;;;;50.83;22.90;;;;;;;1.76;100.00;98848.72;4970780;23;20216;-67
2023/01/19 12:23:33;;;;;;;47.37;22.73;;;;;;;1.81;100.00;98843.94;5020892;23;20205;-67
2023/01/19 12:26:11;;;;;;;51.40;21.57;;;;;;;1.80;100.00;98844.88;5042417;23;20303;-68
2023/01/19 12:28:41;;;;;;;50.60;22.40;;;;;;;1.79;100.00;98843.22;5035810;23;20347;-64
2023/01/19 12:31:08;;;;;;;47.67;20.77;;;;;;;1.79;100.00;98845.84;5032403;23;20697;-65
2023/01/19 12:33:37;;;;;;;46.73;22.53;;;;;;;1.84;100.00;98843.66;5031055;23;20326;-64
2023/01/19 12:36:15;;;;;;;46.20;20.87;;;;;;;1.86;100.00;98850.44;5030152;23;21505;-69
2023/01/19 12:38:45;;;;;;;47.47;20.80;;;;;;;1.87;100.00;98843.41;5053618;23;20665;-63
2023/01/19 12:41:17;;;;;;;49.17;23.17;;;;;;;1.83;100.00;98840.22;5015810;23;20266;-64
2023/01/19 12:43:45;;;;;;;44.83;20.57;;;;;;;1.81;100.00;98838.69;4987518;23;23581;-67
2023/01/19 12:46:38;;;;;;;44.93;21.20;;;;;;;1.92;100.00;98836.00;5008925;23;20283;-66
2023/01/19 12:49:18;;;;;;;41.73;19.83;;;;;;;1.86;100.00;98836.50;5026719;23;20217;-65
2023/01/19 12:51:45;;;;;;;51.50;20.80;;;;;;;1.83;100.00;98834.16;5025590;23;20216;-66
2023/01/19 12:54:24;;;;;;;43.43;20.27;;;;;;;1.80;100.00;98840.47;5023949;23;22635;-64
2023/01/19 12:56:57;;;;;;;47.17;20.70;;;;;;;1.82;100.00;98837.72;5036098;23;20209;-67
2023/01/19 12:59:25;;;;;;;42.40;19.13;;;;;;;1.84;100.00;98843.66;5014755;23;20225;-66
2023/01/19 13:02:17;;;;;;;43.23;20.10;;;;;;;1.79;100.00;98836.19;5018569;23;21206;-65
2023/01/19 13:05:22;;;;;;;45.60;21.63;;;;;;;1.73;100.00;98833.22;5008417;23;22118;-69
2023/01/19 13:08:01;;;;;;;50.93;21.53;;;;;;;1.76;100.00;98831.19;4988165;23;20205;-66